createdAt,value
2018-03-03T00:01:43.742Z,79.80
2018-03-03T00:04:11.285Z,82.42
2018-03-03T00:06:38.857Z,80.41
2018-03-03T00:09:06.394Z,80.08
2018-03-03T00:11:33.952Z,81.38
2018-03-03T00:14:01.491Z,79.79
2018-03-03T00:16:29.059Z,81.00
2018-03-03T00:18:56.596Z,80.22
2018-03-03T00:21:24.148Z,79.80
2018-03-03T00:23:52.098Z,79.77
2018-03-03T00:26:19.676Z,80.48
2018-03-03T00:28:47.256Z,82.92
2018-03-03T00:31:14.791Z,82.09
2018-03-03T00:33:42.357Z,81.42
2018-03-03T00:36:10.367Z,81.89
2018-03-03T00:38:37.967Z,82.24
2018-03-03T00:41:05.493Z,83.25
2018-03-03T00:43:33.051Z,81.84
2018-03-03T00:46:00.634Z,81.49
2018-03-03T00:48:28.178Z,81.72
2018-03-03T00:50:55.745Z,81.95
2018-03-03T00:53:23.302Z,81.89
2018-03-03T00:55:50.870Z,81.33
2018-03-03T00:58:18.413Z,83.19
2018-03-03T01:00:45.994Z,82.74
2018-03-03T01:03:13.540Z,83.46
2018-03-03T01:05:41.132Z,82.19
2018-03-03T01:08:08.715Z,82.78
2018-03-03T01:10:36.256Z,82.50
2018-03-03T01:13:03.812Z,83.07
2018-03-03T01:15:31.349Z,83.12
2018-03-03T01:17:58.950Z,84.17
2018-03-03T01:20:26.583Z,84.29
2018-03-03T01:22:54.157Z,85.02
2018-03-03T01:25:21.687Z,83.94
2018-03-03T01:27:49.263Z,83.83
2018-03-03T01:30:16.816Z,84.06
2018-03-03T01:32:44.386Z,84.68
2018-03-03T01:35:11.930Z,83.23
2018-03-03T01:37:39.471Z,83.47
2018-03-03T01:40:07.060Z,83.53
2018-03-03T01:42:34.623Z,83.92
2018-03-03T01:45:02.185Z,83.56
2018-03-03T01:47:29.720Z,84.59
2018-03-03T01:49:57.299Z,83.20
2018-03-03T01:52:24.839Z,82.94
2018-03-03T01:54:52.417Z,83.67
2018-03-03T01:57:19.957Z,83.24
2018-03-03T01:59:47.548Z,83.19
2018-03-03T02:02:15.093Z,83.97
2018-03-03T02:04:42.622Z,84.65
2018-03-03T02:07:10.964Z,83.69
2018-03-03T02:09:38.505Z,85.25
2018-03-03T02:12:06.084Z,84.04
2018-03-03T02:14:33.630Z,84.94
2018-03-03T02:17:01.189Z,85.38
2018-03-03T02:19:28.711Z,83.69
2018-03-03T02:21:56.291Z,83.93
2018-03-03T02:24:23.812Z,83.29
2018-03-03T02:26:51.416Z,82.98
2018-03-03T02:29:18.950Z,83.80
2018-03-03T02:31:46.480Z,83.66
2018-03-03T02:34:14.575Z,85.92
2018-03-03T02:36:42.125Z,85.39
2018-03-03T02:39:09.704Z,85.82
2018-03-03T02:41:37.250Z,84.91
2018-03-03T02:44:04.849Z,85.46
2018-03-03T02:46:32.377Z,84.73
2018-03-03T02:48:59.948Z,84.81
2018-03-03T02:51:27.492Z,84.19
2018-03-03T02:53:55.061Z,84.71
2018-03-03T02:56:22.609Z,85.99
2018-03-03T02:58:50.205Z,85.65
2018-03-03T03:01:17.737Z,85.31
2018-03-03T03:03:45.299Z,86.13
2018-03-03T03:06:12.878Z,85.47
2018-03-03T03:08:40.411Z,84.10
2018-03-03T03:11:07.985Z,83.97
2018-03-03T03:13:35.526Z,86.14
2018-03-03T03:16:03.097Z,85.78
2018-03-03T03:18:30.640Z,85.70
2018-03-03T03:20:58.216Z,84.56
2018-03-03T03:23:25.845Z,85.72
2018-03-03T03:25:53.417Z,85.26
2018-03-03T03:28:20.951Z,85.19
2018-03-03T03:30:48.541Z,86.04
2018-03-03T03:33:16.077Z,85.93
2018-03-03T03:35:44.493Z,85.65
2018-03-03T03:38:12.244Z,86.05
2018-03-03T03:40:39.786Z,85.86
2018-03-03T03:43:07.356Z,85.40
2018-03-03T03:45:34.888Z,85.55
2018-03-03T03:48:02.493Z,87.10
2018-03-03T03:50:30.020Z,86.31
2018-03-03T03:52:57.599Z,86.46
2018-03-03T03:55:25.151Z,86.89
2018-03-03T03:57:52.703Z,87.79
2018-03-03T04:00:20.264Z,87.80
2018-03-03T04:02:47.812Z,88.66
2018-03-03T04:05:15.375Z,88.21
2018-03-03T04:07:42.913Z,88.48
2018-03-03T04:10:10.478Z,87.93
2018-03-03T04:12:38.013Z,87.83
2018-03-03T04:15:05.602Z,88.52
2018-03-03T04:17:33.164Z,87.83
2018-03-03T04:20:00.720Z,87.63
2018-03-03T04:22:28.289Z,86.70
2018-03-03T04:24:55.819Z,86.96
2018-03-03T04:27:23.403Z,87.38
2018-03-03T04:29:50.931Z,87.02
2018-03-03T04:32:18.569Z,87.13
2018-03-03T04:34:46.122Z,87.35
2018-03-03T04:37:13.763Z,87.00
2018-03-03T04:39:41.300Z,86.60
2018-03-03T04:42:08.829Z,86.74
2018-03-03T04:44:36.393Z,86.39
2018-03-03T04:47:03.947Z,86.93
2018-03-03T04:49:31.523Z,86.68
2018-03-03T04:51:59.059Z,86.73
2018-03-03T04:54:26.627Z,88.35
2018-03-03T04:56:54.171Z,87.11
2018-03-03T05:02:37.010Z,87.22
2018-03-03T05:05:07.999Z,86.80
2018-03-03T05:07:37.352Z,86.95
2018-03-03T05:10:04.954Z,86.29
2018-03-03T05:12:34.916Z,87.48
2018-03-03T05:15:08.007Z,87.29
2018-03-03T05:17:41.241Z,87.09
2018-03-03T05:23:16.002Z,86.78
2018-03-03T05:25:49.226Z,86.70
2018-03-03T05:31:22.176Z,86.54
2018-03-03T05:36:55.109Z,87.29
2018-03-03T05:39:28.205Z,87.44
2018-03-03T05:45:10.241Z,88.13
2018-03-03T05:47:38.320Z,87.10
2018-03-03T05:50:11.465Z,87.37
2018-03-03T05:52:44.451Z,86.86
2018-03-03T05:55:17.677Z,87.12
2018-03-03T05:57:51.528Z,88.10
2018-03-03T06:03:27.540Z,86.81
2018-03-03T06:06:08.884Z,87.73
2018-03-03T06:08:42.090Z,87.60
2018-03-03T06:11:09.644Z,86.54
2018-03-03T06:13:37.217Z,87.07
2018-03-03T06:16:04.786Z,88.65
2018-03-03T06:18:32.395Z,87.49
2018-03-03T06:20:59.929Z,86.02
2018-03-03T06:23:27.500Z,86.65
2018-03-03T06:25:55.035Z,87.37
2018-03-03T06:28:22.556Z,87.50
2018-03-03T06:30:50.109Z,88.54
2018-03-03T06:33:17.718Z,88.09
2018-03-03T06:35:46.045Z,86.67
2018-03-03T06:38:13.576Z,86.63
2018-03-03T06:40:41.155Z,86.53
2018-03-03T06:43:08.695Z,86.00
2018-03-03T06:45:36.276Z,87.08
2018-03-03T06:48:03.862Z,86.66
2018-03-03T06:50:31.440Z,86.70
2018-03-03T06:52:59.037Z,87.02
2018-03-03T06:55:26.596Z,86.99
2018-03-03T06:57:54.190Z,87.04
2018-03-03T07:00:21.720Z,87.30
2018-03-03T07:02:49.312Z,86.37
2018-03-03T07:05:16.875Z,86.53
2018-03-03T07:07:45.062Z,86.38
2018-03-03T07:10:12.906Z,86.47
2018-03-03T07:12:40.679Z,87.17
2018-03-03T07:15:08.388Z,88.18
2018-03-03T07:17:35.936Z,88.00
2018-03-03T07:20:03.500Z,87.12
2018-03-03T07:22:31.075Z,87.24
2018-03-03T07:24:58.677Z,85.68
2018-03-03T07:27:26.209Z,85.37
2018-03-03T07:29:53.788Z,86.36
2018-03-03T07:32:21.310Z,86.11
2018-03-03T07:34:48.834Z,85.92
2018-03-03T07:37:16.400Z,85.54
2018-03-03T07:39:43.945Z,86.76
2018-03-03T07:42:11.526Z,85.33
2018-03-03T07:44:39.053Z,85.08
2018-03-03T07:47:06.628Z,84.98
2018-03-03T07:49:34.156Z,85.26
2018-03-03T07:52:01.741Z,85.11
2018-03-03T07:54:29.278Z,85.92
2018-03-03T07:57:08.656Z,85.83
2018-03-03T07:59:36.256Z,85.16
2018-03-03T08:02:03.772Z,85.51
2018-03-03T08:04:31.336Z,85.83
2018-03-03T08:06:59.051Z,83.78
2018-03-03T08:09:26.729Z,85.37
2018-03-03T08:11:54.149Z,85.56
2018-03-03T08:14:21.707Z,84.51
2018-03-03T08:16:49.256Z,84.53
2018-03-03T08:19:16.829Z,83.52
2018-03-03T08:21:44.379Z,83.38
2018-03-03T08:24:11.938Z,84.85
2018-03-03T08:26:39.503Z,84.43
2018-03-03T08:29:07.909Z,83.78
2018-03-03T08:31:35.600Z,83.11
2018-03-03T08:34:03.180Z,83.24
2018-03-03T08:36:30.756Z,84.66
2018-03-03T08:38:58.405Z,84.33
2018-03-03T08:41:28.062Z,85.61
2018-03-03T08:43:55.705Z,84.60
2018-03-03T08:46:23.245Z,83.47
2018-03-03T08:48:53.230Z,84.03
2018-03-03T08:51:21.347Z,84.61
2018-03-03T08:53:49.320Z,84.91
2018-03-03T08:56:17.368Z,84.63
2018-03-03T08:58:45.505Z,84.62
2018-03-03T09:01:13.149Z,84.38
2018-03-03T09:03:41.105Z,84.26
2018-03-03T09:06:09.107Z,85.77
2018-03-03T09:08:36.690Z,85.10
2018-03-03T09:11:04.260Z,84.58
2018-03-03T09:13:31.809Z,83.39
2018-03-03T09:15:59.367Z,84.32
2018-03-03T09:18:26.896Z,83.16
2018-03-03T09:20:54.452Z,85.02
2018-03-03T09:23:22.313Z,84.70
2018-03-03T09:25:49.951Z,83.95
2018-03-03T09:28:17.565Z,83.30
2018-03-03T09:30:45.091Z,83.42
2018-03-03T09:33:12.813Z,83.68
2018-03-03T09:35:40.345Z,83.58
2018-03-03T09:38:07.934Z,84.72
2018-03-03T09:40:35.470Z,83.71
2018-03-03T09:43:03.035Z,83.82
2018-03-03T09:45:30.571Z,84.05
2018-03-03T09:47:58.173Z,82.04
2018-03-03T09:50:25.725Z,82.42
2018-03-03T09:52:53.296Z,82.05
2018-03-03T09:55:20.823Z,83.52
2018-03-03T09:57:48.349Z,82.32
2018-03-03T10:00:15.987Z,82.07
2018-03-03T10:02:43.543Z,81.17
2018-03-03T10:05:13.667Z,80.93
2018-03-03T10:07:41.212Z,80.82
2018-03-03T10:10:08.818Z,81.15
2018-03-03T10:12:36.872Z,80.95
2018-03-03T10:15:05.120Z,81.04
2018-03-03T10:17:33.982Z,80.46
2018-03-03T10:20:08.060Z,80.58
2018-03-03T10:22:35.864Z,80.36
2018-03-03T10:25:07.955Z,80.08
2018-03-03T10:27:42.080Z,81.23
2018-03-03T10:30:13.208Z,81.46
2018-03-03T10:32:43.163Z,80.73
2018-03-03T10:35:12.930Z,82.64
2018-03-03T10:37:40.918Z,82.70
2018-03-03T10:40:08.471Z,81.95
2018-03-03T10:42:36.048Z,82.34
2018-03-03T10:45:04.884Z,81.08
2018-03-03T10:47:32.649Z,80.78
2018-03-03T10:50:11.619Z,81.85
2018-03-03T10:52:39.183Z,80.61
2018-03-03T10:55:06.730Z,80.87
2018-03-03T10:57:35.531Z,78.99
2018-03-03T11:00:03.383Z,79.67
2018-03-03T11:02:31.774Z,80.27
2018-03-03T11:04:59.859Z,80.13
2018-03-03T11:07:27.618Z,78.73
2018-03-03T11:09:55.388Z,79.49
2018-03-03T11:12:22.947Z,78.58
2018-03-03T11:14:50.601Z,79.36
2018-03-03T11:17:18.319Z,78.31
2018-03-03T11:19:46.352Z,78.28
2018-03-03T11:22:13.894Z,78.88
2018-03-03T11:24:41.985Z,78.43
2018-03-03T11:27:09.680Z,78.71
2018-03-03T11:29:37.377Z,77.42
2018-03-03T11:32:04.909Z,78.07
2018-03-03T11:34:32.445Z,77.68
2018-03-03T11:37:00.024Z,76.75
2018-03-03T11:39:31.202Z,79.83
2018-03-03T11:41:59.109Z,79.13
2018-03-03T11:44:26.983Z,77.86
2018-03-03T11:46:54.572Z,78.14
2018-03-03T11:49:22.095Z,77.80
2018-03-03T11:51:49.650Z,79.75
2018-03-03T11:54:17.187Z,79.25
2018-03-03T11:56:44.956Z,78.68
2018-03-03T11:59:12.986Z,77.23
2018-03-03T12:01:40.556Z,77.50
2018-03-03T12:04:08.112Z,76.83
2018-03-03T12:06:35.651Z,77.43
2018-03-03T12:09:03.237Z,77.12
2018-03-03T12:11:31.019Z,76.82
2018-03-03T12:13:58.577Z,75.94
2018-03-03T12:16:26.113Z,78.59
2018-03-03T12:18:53.681Z,76.43
2018-03-03T12:21:21.206Z,76.04
2018-03-03T12:23:48.787Z,77.31
2018-03-03T12:26:16.303Z,79.14
2018-03-03T12:28:43.868Z,80.19
2018-03-03T12:31:11.463Z,80.41
2018-03-03T12:33:38.991Z,79.52
2018-03-03T12:36:06.549Z,79.02
2018-03-03T12:38:34.068Z,78.96
2018-03-03T12:41:01.683Z,78.46
2018-03-03T12:43:29.223Z,78.77
2018-03-03T12:45:56.804Z,80.13
2018-03-03T12:48:24.330Z,79.39
2018-03-03T12:50:51.923Z,79.02
2018-03-03T12:53:19.446Z,78.58
2018-03-03T12:55:46.970Z,79.70
2018-03-03T12:58:14.524Z,79.48
2018-03-03T13:00:42.055Z,78.68
2018-03-03T13:03:09.606Z,77.54
2018-03-03T13:05:37.132Z,77.54
2018-03-03T13:08:04.686Z,77.11
2018-03-03T13:10:32.209Z,77.79
2018-03-03T13:12:59.780Z,77.33
2018-03-03T13:15:27.307Z,78.29
2018-03-03T13:17:54.835Z,78.25
2018-03-03T13:20:22.392Z,76.32
2018-03-03T13:22:49.918Z,77.85
2018-03-03T13:25:17.479Z,77.32
2018-03-03T13:27:44.999Z,75.54
2018-03-03T13:30:12.574Z,76.16
2018-03-03T13:32:40.097Z,77.74
2018-03-03T13:35:07.675Z,76.31
2018-03-03T13:37:35.196Z,76.59
2018-03-03T13:40:02.716Z,77.07
2018-03-03T13:42:30.276Z,80.06
2018-03-03T13:44:57.812Z,78.59
2018-03-03T13:47:25.388Z,79.19
2018-03-03T13:49:52.922Z,79.69
2018-03-03T13:52:20.487Z,78.02
2018-03-03T13:54:48.609Z,78.61
2018-03-03T13:57:16.191Z,80.23
2018-03-03T13:59:43.724Z,79.88
2018-03-03T14:02:11.255Z,79.04
2018-03-03T14:04:38.860Z,78.29
2018-03-03T14:07:06.392Z,80.01
2018-03-03T14:09:33.961Z,79.81
2018-03-03T14:12:01.490Z,79.94
2018-03-03T14:14:29.053Z,79.77
2018-03-03T14:16:56.589Z,80.25
2018-03-03T14:19:24.156Z,81.04
2018-03-03T14:21:51.704Z,78.53
2018-03-03T14:24:19.619Z,78.00
2018-03-03T14:26:47.176Z,79.29
2018-03-03T14:29:14.757Z,79.23
2018-03-03T14:31:42.283Z,79.85
2018-03-03T14:34:09.846Z,78.89
2018-03-03T14:36:37.404Z,79.62
2018-03-03T14:39:04.975Z,78.67
2018-03-03T14:41:32.547Z,80.14
2018-03-03T14:44:00.093Z,79.71
2018-03-03T14:46:29.433Z,78.60
2018-03-03T14:48:56.991Z,78.54
2018-03-03T14:51:24.524Z,78.81
2018-03-03T14:53:52.098Z,78.45
2018-03-03T14:56:19.746Z,79.24
2018-03-03T14:58:47.353Z,78.75
2018-03-03T15:01:14.909Z,80.30
2018-03-03T15:03:42.481Z,81.29
2018-03-03T15:06:10.017Z,81.69
2018-03-03T15:08:37.597Z,81.02
2018-03-03T15:11:05.118Z,80.14
2018-03-03T15:13:32.759Z,79.76
2018-03-03T15:16:00.270Z,79.96
2018-03-03T15:18:27.800Z,79.79
2018-03-03T15:20:55.362Z,80.03
2018-03-03T15:23:22.887Z,81.29
2018-03-03T15:25:50.628Z,79.79
2018-03-03T15:28:18.183Z,79.64
2018-03-03T15:30:45.743Z,79.51
2018-03-03T15:33:14.955Z,80.82
2018-03-03T15:35:42.528Z,80.77
2018-03-03T15:38:10.085Z,81.32
2018-03-03T15:40:41.542Z,80.98
2018-03-03T15:43:09.242Z,80.70
2018-03-03T15:45:36.775Z,80.45
2018-03-03T15:48:05.682Z,80.56
2018-03-03T15:50:33.212Z,80.54
2018-03-03T15:53:00.770Z,80.22
2018-03-03T15:55:28.306Z,80.31
2018-03-03T15:57:55.961Z,80.76
2018-03-03T16:00:23.684Z,80.62
2018-03-03T16:02:52.464Z,80.51
2018-03-03T16:05:20.756Z,80.47
2018-03-03T16:07:48.291Z,80.59
2018-03-03T16:10:16.290Z,81.65
2018-03-03T16:12:44.078Z,81.70
2018-03-03T16:15:11.640Z,81.96
2018-03-03T16:17:39.155Z,81.48
2018-03-03T16:20:06.732Z,81.82
2018-03-03T16:22:34.260Z,82.95
2018-03-03T16:25:01.839Z,81.75
2018-03-03T16:27:29.390Z,83.83
2018-03-03T16:29:56.967Z,83.20
2018-03-03T16:32:24.511Z,82.90
2018-03-03T16:34:52.068Z,82.05
2018-03-03T16:37:19.600Z,85.31
2018-03-03T16:39:47.188Z,84.82
2018-03-03T16:42:14.746Z,85.15
2018-03-03T16:44:42.309Z,85.14
2018-03-03T16:47:10.795Z,84.17
2018-03-03T16:49:38.889Z,84.88
2018-03-03T16:52:06.909Z,85.22
2018-03-03T16:54:35.259Z,85.81
2018-03-03T16:57:03.391Z,84.61
2018-03-03T16:59:31.880Z,84.04
2018-03-03T17:01:59.929Z,84.46
2018-03-03T17:04:27.483Z,84.31
2018-03-03T17:06:55.038Z,86.48
2018-03-03T17:09:22.603Z,86.85
2018-03-03T17:11:50.147Z,85.96
2018-03-03T17:14:18.233Z,87.64
2018-03-03T17:16:45.800Z,86.43
2018-03-03T17:19:14.592Z,86.23
2018-03-03T17:21:42.205Z,85.57
2018-03-03T17:24:09.767Z,85.73
2018-03-03T17:26:37.384Z,86.30
2018-03-03T17:29:05.028Z,86.98
2018-03-03T17:31:32.860Z,87.06
2018-03-03T17:34:00.581Z,85.40
2018-03-03T17:36:28.725Z,85.37
2018-03-03T17:38:56.381Z,85.04
2018-03-03T17:41:24.228Z,85.05
2018-03-03T17:43:51.818Z,85.14
2018-03-03T17:46:19.414Z,84.76
2018-03-03T17:48:46.971Z,85.14
2018-03-03T17:51:14.539Z,84.21
2018-03-03T17:53:42.111Z,84.10
2018-03-03T17:56:09.689Z,84.96
2018-03-03T17:58:37.641Z,84.81
2018-03-03T18:01:05.227Z,86.39
2018-03-03T18:03:32.779Z,85.77
2018-03-03T18:06:00.341Z,84.46
2018-03-03T18:08:27.889Z,84.61
2018-03-03T18:10:55.429Z,84.98
2018-03-03T18:13:32.373Z,84.58
2018-03-03T18:15:59.901Z,84.28
2018-03-03T18:18:31.018Z,84.75
2018-03-03T18:20:58.548Z,84.89
2018-03-03T18:23:26.112Z,85.89
2018-03-03T18:25:53.649Z,87.28
2018-03-03T18:28:21.564Z,85.40
2018-03-03T18:30:49.109Z,86.20
2018-03-03T18:33:17.947Z,86.12
2018-03-03T18:35:45.520Z,87.37
2018-03-03T18:38:13.210Z,85.95
2018-03-03T18:40:40.795Z,87.00
2018-03-03T18:43:08.385Z,88.70
2018-03-03T18:45:35.937Z,88.40
2018-03-03T18:48:03.496Z,86.70
2018-03-03T18:50:31.023Z,86.31
2018-03-03T18:53:01.693Z,85.71
2018-03-03T18:55:29.426Z,86.83
2018-03-03T18:57:59.472Z,85.93
2018-03-03T19:00:27.227Z,85.71
2018-03-03T19:02:54.772Z,85.93
2018-03-03T19:05:22.328Z,85.92
2018-03-03T19:07:49.866Z,85.90
2018-03-03T19:10:17.438Z,85.13
2018-03-03T19:12:44.959Z,87.07
2018-03-03T19:15:12.516Z,86.85
2018-03-03T19:17:40.051Z,86.09
2018-03-03T19:20:07.593Z,86.07
2018-03-03T19:22:35.168Z,86.91
2018-03-03T19:25:03.707Z,86.58
2018-03-03T19:27:31.307Z,86.32
2018-03-03T19:29:58.827Z,86.14
2018-03-03T19:32:26.407Z,86.60
2018-03-03T19:34:53.940Z,86.13
2018-03-03T19:37:21.953Z,85.99
2018-03-03T19:39:49.470Z,87.44
2018-03-03T19:42:18.488Z,88.54
2018-03-03T19:44:47.698Z,87.95
2018-03-03T19:47:15.272Z,88.78
2018-03-03T19:49:42.846Z,87.08
2018-03-03T19:52:10.804Z,88.00
2018-03-03T19:54:39.384Z,88.36
2018-03-03T19:57:06.980Z,87.84
2018-03-03T19:59:34.553Z,89.54
2018-03-03T20:02:04.055Z,87.22
2018-03-03T20:04:31.839Z,86.68
2018-03-03T20:06:59.365Z,86.27
2018-03-03T20:09:26.891Z,86.39
2018-03-03T20:11:54.471Z,85.76
2018-03-03T20:14:22.274Z,87.08
2018-03-03T20:16:49.848Z,87.91
2018-03-03T20:19:17.395Z,88.04
2018-03-03T20:21:44.981Z,88.07
2018-03-03T20:24:12.508Z,87.08
2018-03-03T20:26:40.036Z,86.87
2018-03-03T20:29:07.599Z,86.04
2018-03-03T20:31:35.155Z,85.75
2018-03-03T20:34:02.711Z,86.33
2018-03-03T20:36:30.264Z,85.47
2018-03-03T20:38:57.843Z,85.45
2018-03-03T20:41:25.372Z,85.91
2018-03-03T20:43:52.978Z,86.74
2018-03-03T20:46:23.338Z,86.53
2018-03-03T20:48:51.073Z,86.22
2018-03-03T20:51:18.591Z,85.96
2018-03-03T20:53:49.384Z,85.77
2018-03-03T20:56:17.063Z,86.22
2018-03-03T20:58:44.583Z,86.00
2018-03-03T21:01:12.175Z,85.86
2018-03-03T21:03:39.791Z,85.84
2018-03-03T21:06:07.372Z,86.48
2018-03-03T21:08:34.900Z,86.01
2018-03-03T21:11:02.477Z,86.08
2018-03-03T21:13:33.443Z,86.19
2018-03-03T21:16:04.998Z,87.25
2018-03-03T21:18:32.712Z,86.82
2018-03-03T21:21:00.262Z,85.53
2018-03-03T21:23:27.799Z,85.49
2018-03-03T21:25:55.399Z,86.13
2018-03-03T21:28:22.999Z,86.25
2018-03-03T21:30:50.564Z,86.35
2018-03-03T21:33:18.121Z,86.48
2018-03-03T21:35:45.692Z,86.86
2018-03-03T21:38:13.219Z,86.05
2018-03-03T21:40:43.575Z,86.14
2018-03-03T21:43:11.593Z,86.18
2018-03-03T21:45:39.191Z,86.22
2018-03-03T21:48:09.457Z,86.18
2018-03-03T21:50:39.697Z,86.62
2018-03-03T21:53:08.035Z,86.90
2018-03-03T21:55:41.560Z,86.79
2018-03-03T21:58:10.396Z,86.36
2018-03-03T22:00:38.521Z,86.58
2018-03-03T22:03:06.052Z,87.55
2018-03-03T22:05:33.800Z,87.33
2018-03-03T22:08:02.554Z,87.88
2018-03-03T22:10:33.065Z,88.45
2018-03-03T22:13:04.991Z,87.39
2018-03-03T22:15:35.315Z,87.19
2018-03-03T22:18:05.653Z,87.08
2018-03-03T22:20:34.861Z,88.24
2018-03-03T22:23:04.225Z,88.78
2018-03-03T22:25:32.808Z,89.03
2018-03-03T22:28:00.621Z,89.18
2018-03-03T22:30:29.771Z,87.75
2018-03-03T22:32:58.224Z,87.66
2018-03-03T22:35:26.664Z,88.44
2018-03-03T22:37:57.031Z,87.20
2018-03-03T22:40:25.647Z,86.80
2018-03-03T22:42:54.410Z,86.58
2018-03-03T22:45:22.215Z,86.94
2018-03-03T22:47:51.165Z,88.10
2018-03-03T22:50:21.179Z,88.30
2018-03-03T22:52:49.065Z,87.26
2018-03-03T22:55:17.058Z,88.14
2018-03-03T22:57:45.069Z,88.24
2018-03-03T23:00:12.705Z,87.69
2018-03-03T23:02:40.445Z,87.16
2018-03-03T23:05:08.884Z,86.89
2018-03-03T23:07:37.371Z,87.55
2018-03-03T23:10:05.438Z,88.96
2018-03-03T23:12:33.060Z,88.19
2018-03-03T23:15:02.230Z,89.71
2018-03-03T23:17:30.216Z,89.01
2018-03-03T23:19:58.868Z,89.85
2018-03-03T23:22:27.922Z,88.24
2018-03-03T23:24:55.450Z,87.29
2018-03-03T23:27:23.280Z,86.49
2018-03-03T23:29:50.808Z,87.77
2018-03-03T23:32:18.378Z,87.35
2018-03-03T23:34:45.908Z,87.53
2018-03-03T23:37:13.484Z,87.30
2018-03-03T23:39:41.032Z,87.48
2018-03-03T23:42:08.572Z,87.21
2018-03-03T23:44:36.488Z,87.27
2018-03-03T23:47:04.042Z,86.83
2018-03-03T23:49:31.621Z,87.08
2018-03-03T23:51:59.176Z,86.63
2018-03-03T23:54:26.752Z,87.08
2018-03-03T23:56:54.395Z,86.55
2018-03-03T23:59:21.966Z,87.82
